createdAt,value
2019-02-23T00:00:36.448Z,-3.70
2019-02-23T00:03:05.624Z,-3.50
2019-02-23T00:05:34.434Z,-3.50
2019-02-23T00:08:10.109Z,-3.40
2019-02-23T00:10:38.889Z,-3.40
2019-02-23T00:13:07.752Z,-3.40
2019-02-23T00:15:43.491Z,-3.40
2019-02-23T00:18:19.416Z,-3.30
2019-02-23T00:20:55.105Z,-3.40
2019-02-23T00:23:23.808Z,-3.40
2019-02-23T00:25:52.621Z,-3.30
2019-02-23T00:28:27.984Z,-3.40
2019-02-23T00:30:56.762Z,-3.40
2019-02-23T00:33:25.459Z,-3.30
2019-02-23T00:36:08.113Z,-3.30
2019-02-23T00:38:36.833Z,-3.30
2019-02-23T00:41:05.568Z,-3.30
2019-02-23T00:43:40.966Z,-3.30
2019-02-23T00:46:09.836Z,-3.30
2019-02-23T00:48:38.723Z,-3.30
2019-02-23T00:51:14.255Z,-3.30
2019-02-23T00:53:42.968Z,-3.30
2019-02-23T00:56:11.746Z,-3.30
2019-02-23T00:58:48.047Z,-3.30
2019-02-23T01:01:16.791Z,-3.30
2019-02-23T01:03:45.625Z,-3.20
2019-02-23T01:06:20.739Z,-3.20
2019-02-23T01:08:49.506Z,-3.20
2019-02-23T01:11:18.307Z,-3.20
2019-02-23T01:13:54.019Z,-3.20
2019-02-23T01:16:29.505Z,-3.20
2019-02-23T01:19:10.628Z,-3.20
2019-02-23T01:21:39.995Z,-3.20
2019-02-23T01:24:08.858Z,-3.20
2019-02-23T01:26:44.230Z,-3.20
2019-02-23T01:29:12.933Z,-3.20
2019-02-23T01:31:41.676Z,-3.20
2019-02-23T01:34:17.136Z,-3.20
2019-02-23T01:36:52.091Z,-3.20
2019-02-23T01:39:27.867Z,-3.20
2019-02-23T01:41:56.698Z,-3.20
2019-02-23T01:44:25.479Z,-3.20
2019-02-23T01:47:01.476Z,-3.20
2019-02-23T01:49:30.739Z,-3.20
2019-02-23T01:51:59.488Z,-3.20
2019-02-23T01:54:34.710Z,-3.30
2019-02-23T01:57:03.987Z,-3.20
2019-02-23T01:59:32.753Z,-3.30
2019-02-23T02:02:07.985Z,-3.30
2019-02-23T02:04:36.981Z,-3.40
2019-02-23T02:07:05.913Z,-3.40
2019-02-23T02:09:40.864Z,-3.50
2019-02-23T02:12:10.641Z,-3.50
2019-02-23T02:14:39.572Z,-3.50
2019-02-23T02:17:14.502Z,-3.60
2019-02-23T02:19:50.009Z,-3.60
2019-02-23T02:22:25.913Z,-3.60
2019-02-23T02:24:55.299Z,-3.70
2019-02-23T02:27:24.069Z,-3.70
2019-02-23T02:29:59.700Z,-3.70
2019-02-23T02:32:28.508Z,-3.70
2019-02-23T02:34:57.416Z,-3.70
2019-02-23T02:37:32.596Z,-3.70
2019-02-23T02:40:08.947Z,-3.70
2019-02-23T02:42:44.478Z,-3.70
2019-02-23T02:45:13.249Z,-3.80
2019-02-23T02:47:42.019Z,-3.80
2019-02-23T02:50:24.404Z,-3.80
2019-02-23T02:52:48.451Z,-3.80
2019-02-23T02:55:17.287Z,-3.90
2019-02-23T02:57:53.866Z,-3.90
2019-02-23T03:00:22.683Z,-3.90
2019-02-23T03:02:51.443Z,-3.90
2019-02-23T03:05:26.907Z,-3.90
2019-02-23T03:07:55.732Z,-3.80
2019-02-23T03:10:24.529Z,-3.90
2019-02-23T03:13:00.453Z,-3.90
2019-02-23T03:15:29.245Z,-4.00
2019-02-23T03:18:11.547Z,-3.90
2019-02-23T03:20:47.241Z,-3.90
2019-02-23T03:23:22.964Z,-3.90
2019-02-23T03:25:51.880Z,-4.00
2019-02-23T03:28:20.654Z,-4.00
2019-02-23T03:30:56.008Z,-4.00
2019-02-23T03:33:24.912Z,-4.00
2019-02-23T03:35:53.784Z,-4.00
2019-02-23T03:38:28.919Z,-4.10
2019-02-23T03:41:04.772Z,-4.10
2019-02-23T03:43:40.013Z,-4.00
2019-02-23T03:46:08.888Z,-4.10
2019-02-23T03:48:37.709Z,-4.00
2019-02-23T03:51:13.557Z,-4.00
2019-02-23T03:53:42.545Z,-4.00
2019-02-23T03:56:11.410Z,-4.00
2019-02-23T03:58:47.148Z,-4.10
2019-02-23T04:01:15.982Z,-4.10
2019-02-23T04:03:44.828Z,-4.10
2019-02-23T04:06:20.119Z,-4.10
2019-02-23T04:08:48.989Z,-4.10
2019-02-23T04:11:17.867Z,-4.10
2019-02-23T04:13:52.980Z,-4.10
2019-02-23T04:16:21.890Z,-4.00
2019-02-23T04:19:04.313Z,-4.10
2019-02-23T04:21:39.338Z,-4.10
2019-02-23T04:24:14.870Z,-4.20
2019-02-23T04:26:43.639Z,-4.10
2019-02-23T04:29:12.523Z,-4.10
2019-02-23T04:31:50.402Z,-4.10
2019-02-23T04:34:19.434Z,-4.10
2019-02-23T04:36:48.303Z,-4.20
2019-02-23T04:39:24.280Z,-4.20
2019-02-23T04:42:00.088Z,-4.30
2019-02-23T04:44:35.451Z,-4.30
2019-02-23T04:47:04.268Z,-4.30
2019-02-23T04:49:33.203Z,-4.30
2019-02-23T04:52:08.508Z,-4.30
2019-02-23T04:54:39.454Z,-4.30
2019-02-23T04:57:08.297Z,-4.30
2019-02-23T04:59:44.051Z,-4.30
2019-02-23T05:02:12.953Z,-4.30
2019-02-23T05:04:41.812Z,-4.30
2019-02-23T05:07:17.213Z,-4.40
2019-02-23T05:09:46.002Z,-4.40
2019-02-23T05:12:14.908Z,-4.40
2019-02-23T05:14:49.970Z,-4.40
2019-02-23T05:17:18.937Z,-4.40
2019-02-23T05:20:01.147Z,-4.40
2019-02-23T05:22:36.667Z,-4.50
2019-02-23T05:25:12.052Z,-4.50
2019-02-23T05:27:40.840Z,-4.50
2019-02-23T05:30:10.267Z,-4.50
2019-02-23T05:32:46.066Z,-4.60
2019-02-23T05:35:14.937Z,-4.50
2019-02-23T05:37:44.882Z,-4.60
2019-02-23T05:40:20.681Z,-4.60
2019-02-23T05:43:01.029Z,-4.60
2019-02-23T05:45:33.856Z,-4.60
2019-02-23T05:48:02.670Z,-4.60
2019-02-23T05:50:32.927Z,-4.70
2019-02-23T05:53:08.264Z,-4.70
2019-02-23T05:55:37.129Z,-4.60
2019-02-23T05:58:05.915Z,-4.70
2019-02-23T06:00:41.757Z,-4.80
2019-02-23T06:03:10.586Z,-4.90
2019-02-23T06:05:39.327Z,-5.00
2019-02-23T06:08:14.832Z,-4.90
2019-02-23T06:10:44.682Z,-4.90
2019-02-23T06:13:13.828Z,-4.90
2019-02-23T06:15:49.436Z,-4.90
2019-02-23T06:18:24.834Z,-4.90
2019-02-23T06:21:06.633Z,-4.90
2019-02-23T06:23:49.600Z,-4.90
2019-02-23T06:26:30.859Z,-5.00
2019-02-23T06:28:59.838Z,-5.00
2019-02-23T06:31:28.727Z,-5.00
2019-02-23T06:34:15.505Z,-5.00
2019-02-23T06:36:35.040Z,-4.90
2019-02-23T06:39:04.691Z,-4.90
2019-02-23T06:41:41.899Z,-4.90
2019-02-23T06:44:17.143Z,-4.80
2019-02-23T06:46:52.532Z,-4.80
2019-02-23T06:49:21.294Z,-4.70
2019-02-23T06:51:50.084Z,-4.70
2019-02-23T06:54:25.264Z,-4.70
2019-02-23T06:56:54.216Z,-4.60
2019-02-23T06:59:23.028Z,-4.50
2019-02-23T07:01:59.776Z,-4.50
2019-02-23T07:04:28.650Z,-4.40
2019-02-23T07:06:57.502Z,-4.40
2019-02-23T07:09:32.501Z,-4.40
2019-02-23T07:12:01.304Z,-4.40
2019-02-23T07:14:30.212Z,-4.30
2019-02-23T07:17:05.830Z,-4.20
2019-02-23T07:19:41.240Z,-4.10
2019-02-23T07:22:23.738Z,-4.10
2019-02-23T07:24:53.016Z,-4.00
2019-02-23T07:27:21.897Z,-4.00
2019-02-23T07:29:57.586Z,-3.90
2019-02-23T07:32:26.416Z,-3.90
2019-02-23T07:34:55.223Z,-3.80
2019-02-23T07:37:30.712Z,-3.70
2019-02-23T07:39:59.529Z,-3.60
2019-02-23T07:42:30.785Z,-3.50
2019-02-23T07:45:13.091Z,-3.50
2019-02-23T07:47:43.182Z,-3.40
2019-02-23T07:50:12.388Z,-3.20
2019-02-23T07:52:47.892Z,-3.20
2019-02-23T07:55:17.789Z,-3.10
2019-02-23T07:57:46.677Z,-3.00
2019-02-23T08:00:22.437Z,-2.90
2019-02-23T08:02:51.210Z,-2.90
2019-02-23T08:05:19.940Z,-2.80
2019-02-23T08:07:57.585Z,-2.70
2019-02-23T08:10:26.449Z,-2.60
2019-02-23T08:12:55.251Z,-2.40
2019-02-23T08:15:30.517Z,-2.20
2019-02-23T08:17:59.231Z,-2.10
2019-02-23T08:20:40.934Z,-1.90
2019-02-23T08:23:16.596Z,-2.00
2019-02-23T08:25:51.987Z,-1.90
2019-02-23T08:28:20.800Z,-1.90
2019-02-23T08:30:49.741Z,-1.70
2019-02-23T08:33:25.424Z,-1.50
2019-02-23T08:35:54.142Z,-1.50
2019-02-23T08:38:22.987Z,-1.20
2019-02-23T08:41:01.783Z,-1.00
2019-02-23T08:43:30.579Z,-1.00
2019-02-23T08:46:13.456Z,-0.90
2019-02-23T08:48:42.243Z,-0.70
2019-02-23T08:51:11.959Z,-0.60
2019-02-23T08:53:47.702Z,-0.40
2019-02-23T08:56:16.532Z,-0.40
2019-02-23T08:58:45.279Z,-0.30
2019-02-23T09:01:20.849Z,-0.10
2019-02-23T09:03:49.839Z,-0.20
2019-02-23T09:06:18.707Z,0.20
2019-02-23T09:08:54.385Z,0.30
2019-02-23T09:11:23.156Z,0.40
2019-02-23T09:13:52.234Z,0.50
2019-02-23T09:16:27.618Z,0.70
2019-02-23T09:18:56.349Z,0.90
2019-02-23T09:21:38.703Z,1.20
2019-02-23T09:24:14.165Z,1.10
2019-02-23T09:26:49.818Z,1.10
2019-02-23T09:29:18.574Z,1.20
2019-02-23T09:31:47.364Z,1.00
2019-02-23T09:34:23.181Z,1.20
2019-02-23T09:36:51.913Z,1.30
2019-02-23T09:39:20.672Z,1.80
2019-02-23T09:41:55.739Z,2.10
2019-02-23T09:44:31.212Z,2.20
2019-02-23T09:47:13.957Z,1.70
2019-02-23T09:49:42.671Z,2.10
2019-02-23T09:52:11.429Z,2.30
2019-02-23T09:54:48.778Z,2.40
2019-02-23T09:57:17.542Z,2.50
2019-02-23T09:59:46.307Z,2.40
2019-02-23T10:02:21.578Z,2.40
2019-02-23T10:04:50.345Z,2.60
2019-02-23T10:07:19.139Z,2.70
2019-02-23T10:09:54.503Z,2.30
2019-02-23T10:12:23.389Z,2.50
2019-02-23T10:14:52.162Z,2.90
2019-02-23T10:17:27.928Z,3.20
2019-02-23T10:19:56.680Z,3.20
2019-02-23T10:22:39.823Z,3.30
2019-02-23T10:25:15.616Z,3.70
2019-02-23T10:27:51.079Z,3.20
2019-02-23T10:30:19.861Z,3.80
2019-02-23T10:32:48.692Z,3.90
2019-02-23T10:35:23.709Z,3.90
2019-02-23T10:37:52.499Z,4.30
2019-02-23T10:40:21.319Z,4.70
2019-02-23T10:42:57.321Z,5.10
2019-02-23T10:45:26.209Z,4.80
2019-02-23T10:48:08.376Z,5.00
2019-02-23T10:50:37.181Z,5.30
2019-02-23T10:53:06.299Z,5.30
2019-02-23T10:55:42.184Z,5.60
2019-02-23T10:58:12.575Z,5.60
2019-02-23T11:00:41.527Z,5.70
2019-02-23T11:03:17.146Z,6.00
2019-02-23T11:05:45.945Z,5.80
2019-02-23T11:08:14.770Z,5.70
2019-02-23T11:10:50.125Z,6.20
2019-02-23T11:13:21.773Z,6.30
2019-02-23T11:15:50.571Z,6.20
2019-02-23T11:18:26.433Z,6.50
2019-02-23T11:21:01.836Z,6.70
2019-02-23T11:23:44.495Z,6.50
2019-02-23T11:26:13.381Z,6.70
2019-02-23T11:28:42.142Z,6.90
2019-02-23T11:31:17.550Z,7.00
2019-02-23T11:33:46.348Z,7.00
2019-02-23T11:36:15.770Z,6.70
2019-02-23T11:38:50.652Z,7.20
2019-02-23T11:41:19.393Z,7.20
2019-02-23T11:43:48.134Z,7.60
2019-02-23T11:46:23.332Z,7.20
2019-02-23T11:49:02.689Z,7.10
2019-02-23T11:51:37.633Z,7.60
2019-02-23T11:54:06.489Z,7.80
2019-02-23T11:56:35.240Z,8.00
2019-02-23T11:59:10.344Z,8.60
2019-02-23T12:01:39.116Z,8.70
2019-02-23T12:04:07.849Z,7.90
2019-02-23T12:06:43.170Z,8.00
2019-02-23T12:09:11.915Z,8.10
2019-02-23T12:11:40.645Z,8.30
2019-02-23T12:14:15.603Z,8.70
2019-02-23T12:16:44.452Z,7.90
2019-02-23T12:19:13.171Z,7.60
2019-02-23T12:21:48.961Z,8.30
2019-02-23T12:24:24.833Z,8.70
2019-02-23T12:27:00.735Z,8.90
2019-02-23T12:29:29.504Z,9.00
2019-02-23T12:31:58.250Z,9.30
2019-02-23T12:34:33.436Z,9.10
2019-02-23T12:37:02.183Z,8.50
2019-02-23T12:39:30.998Z,8.60
2019-02-23T12:42:06.888Z,8.40
2019-02-23T12:44:35.649Z,8.20
2019-02-23T12:47:04.428Z,7.20
2019-02-23T12:49:40.141Z,7.40
2019-02-23T12:52:16.082Z,7.10
2019-02-23T12:54:51.481Z,7.40
2019-02-23T12:57:20.364Z,7.40
2019-02-23T12:59:49.169Z,7.30
2019-02-23T13:02:24.340Z,7.30
2019-02-23T13:04:53.268Z,7.10
2019-02-23T13:07:22.084Z,7.40
2019-02-23T13:10:00.384Z,7.70
2019-02-23T13:13:09.913Z,7.50
2019-02-23T13:15:55.987Z,7.30
2019-02-23T13:19:05.140Z,7.10
2019-02-23T13:22:24.218Z,7.10
2019-02-23T13:25:30.117Z,6.80
2019-02-23T13:29:02.058Z,6.70
2019-02-23T13:32:03.175Z,6.60
2019-02-23T13:35:40.607Z,6.70
2019-02-23T13:38:35.429Z,6.80
2019-02-23T13:41:50.288Z,6.80
2019-02-23T13:45:05.692Z,6.80
2019-02-23T13:48:17.969Z,6.50
2019-02-23T13:51:34.358Z,6.40
2019-02-23T13:54:43.188Z,6.30
2019-02-23T13:57:34.063Z,6.10
2019-02-23T14:00:42.197Z,5.90
2019-02-23T14:03:36.663Z,5.90
2019-02-23T14:06:53.743Z,5.90
2019-02-23T14:09:48.662Z,5.70
2019-02-23T14:12:34.742Z,5.70
2019-02-23T14:15:47.221Z,5.50
2019-02-23T14:18:54.459Z,5.50
2019-02-23T14:22:04.778Z,5.30
2019-02-23T14:25:39.466Z,5.20
2019-02-23T14:28:29.168Z,5.10
2019-02-23T14:31:49.408Z,5.20
2019-02-23T14:34:53.743Z,5.10
2019-02-23T14:37:42.269Z,5.00
2019-02-23T14:40:23.042Z,4.90
2019-02-23T14:43:28.547Z,4.80
2019-02-23T14:46:40.529Z,4.80
2019-02-23T14:49:51.835Z,4.80
2019-02-23T14:52:57.163Z,4.70
2019-02-23T14:56:16.010Z,4.70
2019-02-23T14:59:21.225Z,4.60
2019-02-23T15:02:08.791Z,4.50
2019-02-23T15:05:14.079Z,4.50
2019-02-23T15:07:58.120Z,4.50
2019-02-23T15:10:52.851Z,4.40
2019-02-23T15:14:07.983Z,4.30
2019-02-23T15:17:24.682Z,4.30
2019-02-23T15:20:43.325Z,4.30
2019-02-23T15:23:47.560Z,4.30
2019-02-23T15:26:58.479Z,4.20
2019-02-23T15:29:38.888Z,4.10
2019-02-23T15:32:53.997Z,4.00
2019-02-23T15:35:46.490Z,4.00
2019-02-23T15:38:55.054Z,3.90
2019-02-23T15:42:14.198Z,4.00
2019-02-23T15:45:49.062Z,3.90
2019-02-23T15:48:39.453Z,3.70
2019-02-23T15:51:15.186Z,3.60
2019-02-23T15:53:44.088Z,3.60
2019-02-23T15:56:26.425Z,3.60
2019-02-23T15:58:55.197Z,3.50
2019-02-23T16:01:24.343Z,3.40
2019-02-23T16:04:01.573Z,3.40
2019-02-23T16:06:31.613Z,3.30
2019-02-23T16:09:00.861Z,3.20
2019-02-23T16:11:36.792Z,3.20
2019-02-23T16:14:05.594Z,3.10
2019-02-23T16:16:34.347Z,3.00
2019-02-23T16:19:10.096Z,3.00
2019-02-23T16:21:38.849Z,2.90
2019-02-23T16:24:20.190Z,2.90
2019-02-23T16:26:55.711Z,2.70
2019-02-23T16:29:33.292Z,2.70
2019-02-23T16:32:02.198Z,2.60
2019-02-23T16:34:30.970Z,2.60
2019-02-23T16:37:06.696Z,2.60
2019-02-23T16:39:40.499Z,2.50
2019-02-23T16:42:08.771Z,2.40
2019-02-23T16:44:44.638Z,2.40
2019-02-23T16:47:13.369Z,2.40
2019-02-23T16:49:43.382Z,2.30
2019-02-23T16:52:20.128Z,2.20
2019-02-23T16:54:49.073Z,2.20
2019-02-23T16:57:32.069Z,2.10
2019-02-23T17:00:02.267Z,2.00
2019-02-23T17:02:31.111Z,2.10
2019-02-23T17:05:07.242Z,2.20
2019-02-23T17:07:36.887Z,2.00
2019-02-23T17:10:05.978Z,1.90
2019-02-23T17:12:41.894Z,1.90
2019-02-23T17:15:10.947Z,1.80
2019-02-23T17:17:39.749Z,1.70
2019-02-23T17:20:15.175Z,1.60
2019-02-23T17:22:44.026Z,1.50
2019-02-23T17:25:26.331Z,1.50
2019-02-23T17:28:01.291Z,1.40
2019-02-23T17:30:36.724Z,1.30
2019-02-23T17:33:05.540Z,1.30
2019-02-23T17:35:34.364Z,1.20
2019-02-23T17:38:16.145Z,1.10
2019-02-23T17:40:40.561Z,1.10
2019-02-23T17:43:09.418Z,1.00
2019-02-23T17:45:45.088Z,0.90
2019-02-23T17:48:13.877Z,0.80
2019-02-23T17:50:42.732Z,0.70
2019-02-23T17:53:20.102Z,0.70
2019-02-23T17:55:48.983Z,0.60
2019-02-23T17:58:31.816Z,0.70
2019-02-23T18:01:00.631Z,0.60
2019-02-23T18:03:29.415Z,0.60
2019-02-23T18:06:05.043Z,0.60
2019-02-23T18:08:34.178Z,0.50
2019-02-23T18:11:02.949Z,0.50
2019-02-23T18:13:40.176Z,0.60
2019-02-23T18:16:08.913Z,0.50
2019-02-23T18:18:37.689Z,0.40
2019-02-23T18:21:12.912Z,0.50
2019-02-23T18:23:41.662Z,0.50
2019-02-23T18:26:23.337Z,0.50
2019-02-23T18:28:59.129Z,0.40
2019-02-23T18:31:35.522Z,0.30
2019-02-23T18:34:04.336Z,0.40
2019-02-23T18:36:34.917Z,0.40
2019-02-23T18:39:11.163Z,0.20
2019-02-23T18:41:39.911Z,0.10
2019-02-23T18:44:08.664Z,0.10
2019-02-23T18:46:43.952Z,0.20
2019-02-23T18:49:12.797Z,0.20
2019-02-23T18:51:41.813Z,0.10
2019-02-23T18:54:18.236Z,0.10
2019-02-23T18:56:47.037Z,-0.10
2019-02-23T18:59:28.597Z,-0.10
2019-02-23T19:01:57.368Z,0.00
2019-02-23T19:04:26.244Z,-0.10
2019-02-23T19:07:01.500Z,-0.20
2019-02-23T19:09:39.373Z,-0.20
2019-02-23T19:12:14.365Z,-0.20
2019-02-23T19:14:43.145Z,0.00
2019-02-23T19:17:11.924Z,0.00
2019-02-23T19:19:47.216Z,0.00
2019-02-23T19:22:16.037Z,-0.10
2019-02-23T19:24:44.806Z,-0.20
2019-02-23T19:27:19.767Z,-0.10
2019-02-23T19:29:54.968Z,-0.20
2019-02-23T19:32:30.047Z,-0.30
2019-02-23T19:34:58.796Z,-0.20
2019-02-23T19:37:27.546Z,0.00
2019-02-23T19:40:02.827Z,-0.10
2019-02-23T19:42:31.617Z,-0.10
2019-02-23T19:45:00.595Z,-0.10
2019-02-23T19:47:39.046Z,-0.10
2019-02-23T19:50:14.181Z,-0.10
2019-02-23T19:52:50.216Z,-0.20
2019-02-23T19:55:19.028Z,-0.30
2019-02-23T19:57:47.811Z,-0.30
2019-02-23T20:00:29.539Z,-0.20
2019-02-23T20:02:58.385Z,-0.20
2019-02-23T20:05:27.117Z,-0.30
2019-02-23T20:08:02.335Z,-0.40
2019-02-23T20:10:31.093Z,-0.30
2019-02-23T20:12:59.851Z,-0.40
2019-02-23T20:15:35.432Z,-0.30
2019-02-23T20:18:05.814Z,-0.30
2019-02-23T20:20:34.603Z,-0.30
2019-02-23T20:23:09.822Z,-0.40
2019-02-23T20:25:45.066Z,-0.60
2019-02-23T20:28:27.347Z,-0.50
2019-02-23T20:30:56.087Z,-0.60
2019-02-23T20:33:24.869Z,-0.70
2019-02-23T20:35:59.900Z,-0.60
2019-02-23T20:38:28.635Z,-0.60
2019-02-23T20:40:57.539Z,-0.80
2019-02-23T20:43:33.514Z,-0.70
2019-02-23T20:46:02.331Z,-0.90
2019-02-23T20:48:31.173Z,-0.90
2019-02-23T20:51:06.819Z,-1.00
2019-02-23T20:53:35.642Z,-0.70
2019-02-23T20:56:04.542Z,-0.80
2019-02-23T20:58:40.467Z,-1.00
2019-02-23T21:01:16.236Z,-1.10
2019-02-23T21:03:52.036Z,-1.30
2019-02-23T21:06:22.150Z,-1.30
2019-02-23T21:08:51.119Z,-1.30
2019-02-23T21:11:26.861Z,-1.50
2019-02-23T21:13:55.716Z,-1.60
2019-02-23T21:16:51.598Z,-1.70
2019-02-23T21:19:26.553Z,-1.70
2019-02-23T21:22:01.646Z,-1.80
2019-02-23T21:24:30.421Z,-1.90
2019-02-23T21:26:59.250Z,-1.90
2019-02-23T21:29:34.428Z,-2.00
2019-02-23T21:32:03.222Z,-1.90
2019-02-23T21:34:34.179Z,-1.90
2019-02-23T21:37:09.970Z,-2.00
2019-02-23T21:39:40.431Z,-2.10
2019-02-23T21:42:09.464Z,-2.10
2019-02-23T21:44:44.587Z,-2.20
2019-02-23T21:47:13.363Z,-2.30
2019-02-23T21:49:42.233Z,-2.30
2019-02-23T21:52:17.175Z,-2.30
2019-02-23T21:54:45.941Z,-2.30
2019-02-23T21:57:21.991Z,-2.30
2019-02-23T21:59:51.801Z,-2.30
2019-02-23T22:02:27.581Z,-2.30
2019-02-23T22:05:11.666Z,-2.40
2019-02-23T22:07:33.070Z,-2.50
2019-02-23T22:10:01.936Z,-2.50
2019-02-23T22:12:37.927Z,-2.50
2019-02-23T22:15:07.021Z,-2.40
2019-02-23T22:17:49.003Z,-2.50
2019-02-23T22:20:24.662Z,-2.50
2019-02-23T22:23:00.601Z,-2.60
2019-02-23T22:25:29.450Z,-2.60
2019-02-23T22:27:58.289Z,-2.60
2019-02-23T22:30:33.573Z,-2.60
2019-02-23T22:33:02.470Z,-2.60
2019-02-23T22:35:31.354Z,-2.60
2019-02-23T22:38:07.404Z,-2.70
2019-02-23T22:40:36.209Z,-2.70
2019-02-23T22:43:05.053Z,-2.70
2019-02-23T22:45:40.074Z,-2.80
2019-02-23T22:48:08.922Z,-2.80
2019-02-23T22:50:37.952Z,-2.80
2019-02-23T22:53:12.958Z,-2.80
2019-02-23T22:55:41.756Z,-2.60
2019-02-23T22:58:10.694Z,-2.50
2019-02-23T23:01:01.494Z,-2.50
2019-02-23T23:03:37.251Z,-2.50
2019-02-23T23:06:12.723Z,-2.60
2019-02-23T23:08:41.497Z,-2.70
2019-02-23T23:11:10.288Z,-2.70
2019-02-23T23:13:46.158Z,-2.80
2019-02-23T23:16:14.912Z,-2.90
2019-02-23T23:18:56.361Z,-2.90
2019-02-23T23:21:31.933Z,-2.90
2019-02-23T23:24:07.665Z,-3.00
2019-02-23T23:26:36.425Z,-3.00
2019-02-23T23:29:05.157Z,-3.00
2019-02-23T23:31:40.816Z,-3.00
2019-02-23T23:34:09.621Z,-3.00
2019-02-23T23:36:38.475Z,-2.90
2019-02-23T23:39:13.866Z,-2.90
2019-02-23T23:41:42.653Z,-3.00
2019-02-23T23:44:11.449Z,-2.90
2019-02-23T23:46:46.894Z,-2.90
2019-02-23T23:49:15.632Z,-2.90
2019-02-23T23:51:44.479Z,-2.80
2019-02-23T23:54:19.900Z,-2.80
2019-02-23T23:56:48.762Z,-2.80
2019-02-23T23:59:17.543Z,-2.70
